Disclaimer

Please do not use the information listed here in-flight or in-navigation, as they are not provided to us by the airports but are provided by volunteers, so they might be outdated.

Search


Regions


Airport information page

Radio informations:
Tower (TWR) - 123.5 MHz

Airport informations:
Latitude: 34° 52' 09.00" N
Longitude: 048° 33' 09.00" E
Elevation: 5755 feet - 1754 meters
Operating hours: Remarks
Operating agency: Civil government, landing fees and diplomatic clearance may be required
Timezone: UTC+3:30
Fuel: 100/130 MIL Spec, low lead, aviation gasoline (BLUE)

Runway information:
10/28 - 10611 x 148 feet< - >3234 x 45 meters

Recent METARs:
OIHH 151100Z 28004KT 9999 FEW035CB SCT040 10/06 Q1018
OIHH 151100Z 28004KT 9999 FEW035CB SCT040 10/06 Q1018
OIHH 151200Z 00000KT 9999 SCT040 10/06 Q1018

Airport on the map: